sensor_id;sensor_type;location;lat;lon;timestamp;pressure;altitude;pressure_sealevel;temperature;humidity
9474;BME280;8865;47.636;7.692;2023-04-28T00:02:06;98065.22;;;13.92;100.00
9474;BME280;8865;47.636;7.692;2023-04-28T00:04:32;98059.78;;;13.93;100.00
9474;BME280;8865;47.636;7.692;2023-04-28T00:07:05;98057.47;;;13.99;100.00
9474;BME280;8865;47.636;7.692;2023-04-28T00:09:31;98055.16;;;13.96;100.00
9474;BME280;8865;47.636;7.692;2023-04-28T00:11:57;98064.56;;;13.98;100.00
9474;BME280;8865;47.636;7.692;2023-04-28T00:14:24;98057.31;;;14.00;100.00
9474;BME280;8865;47.636;7.692;2023-04-28T00:16:51;98050.94;;;14.03;100.00
9474;BME280;8865;47.636;7.692;2023-04-28T00:19:16;98056.03;;;14.04;100.00
9474;BME280;8865;47.636;7.692;2023-04-28T00:21:42;98051.25;;;14.08;100.00
9474;BME280;8865;47.636;7.692;2023-04-28T00:24:09;98054.22;;;14.05;100.00
9474;BME280;8865;47.636;7.692;2023-04-28T00:26:35;98053.56;;;14.03;100.00
9474;BME280;8865;47.636;7.692;2023-04-28T00:29:01;98058.34;;;14.07;100.00
9474;BME280;8865;47.636;7.692;2023-04-28T00:31:27;98054.91;;;14.07;100.00
9474;BME280;8865;47.636;7.692;2023-04-28T00:33:53;98064.75;;;14.05;100.00
9474;BME280;8865;47.636;7.692;2023-04-28T00:36:19;98063.28;;;14.02;100.00
9474;BME280;8865;47.636;7.692;2023-04-28T00:38:45;98064.41;;;14.00;100.00
9474;BME280;8865;47.636;7.692;2023-04-28T00:41:11;98058.66;;;13.96;100.00
9474;BME280;8865;47.636;7.692;2023-04-28T00:43:45;98065.03;;;13.93;100.00
9474;BME280;8865;47.636;7.692;2023-04-28T00:46:19;98064.22;;;13.93;100.00
9474;BME280;8865;47.636;7.692;2023-04-28T00:48:45;98051.00;;;13.85;100.00
9474;BME280;8865;47.636;7.692;2023-04-28T00:51:11;98060.22;;;13.81;100.00
9474;BME280;8865;47.636;7.692;2023-04-28T00:53:37;98075.56;;;13.85;100.00
9474;BME280;8865;47.636;7.692;2023-04-28T00:56:04;98068.31;;;13.87;100.00
9474;BME280;8865;47.636;7.692;2023-04-28T00:58:31;98079.16;;;13.84;100.00
9474;BME280;8865;47.636;7.692;2023-04-28T01:01:06;98073.03;;;13.75;100.00
9474;BME280;8865;47.636;7.692;2023-04-28T01:03:35;98074.59;;;13.60;100.00
9474;BME280;8865;47.636;7.692;2023-04-28T01:06:06;98077.38;;;13.58;100.00
9474;BME280;8865;47.636;7.692;2023-04-28T01:08:34;98075.94;;;13.64;100.00
9474;BME280;8865;47.636;7.692;2023-04-28T01:11:00;98078.25;;;13.67;100.00
9474;BME280;8865;47.636;7.692;2023-04-28T01:13:27;98092.91;;;13.70;100.00
9474;BME280;8865;47.636;7.692;2023-04-28T01:15:54;98087.66;;;13.70;100.00
9474;BME280;8865;47.636;7.692;2023-04-28T01:18:21;98079.75;;;13.70;100.00
9474;BME280;8865;47.636;7.692;2023-04-28T01:20:47;98090.88;;;13.64;100.00
9474;BME280;8865;47.636;7.692;2023-04-28T01:23:14;98096.28;;;13.62;100.00
9474;BME280;8865;47.636;7.692;2023-04-28T01:25:41;98091.19;;;13.61;100.00
9474;BME280;8865;47.636;7.692;2023-04-28T01:28:08;98086.84;;;13.51;100.00
9474;BME280;8865;47.636;7.692;2023-04-28T01:30:35;98094.56;;;13.45;100.00
9474;BME280;8865;47.636;7.692;2023-04-28T01:33:01;98078.09;;;13.43;100.00
9474;BME280;8865;47.636;7.692;2023-04-28T01:35:28;98066.09;;;13.22;100.00
9474;BME280;8865;47.636;7.692;2023-04-28T01:37:54;98053.41;;;13.17;100.00
9474;BME280;8865;47.636;7.692;2023-04-28T01:40:20;98059.97;;;13.13;100.00
9474;BME280;8865;47.636;7.692;2023-04-28T01:42:46;98058.97;;;13.14;100.00
9474;BME280;8865;47.636;7.692;2023-04-28T01:45:12;98073.78;;;13.15;100.00
9474;BME280;8865;47.636;7.692;2023-04-28T01:47:38;98084.81;;;13.19;100.00
9474;BME280;8865;47.636;7.692;2023-04-28T01:50:04;98081.34;;;13.18;100.00
9474;BME280;8865;47.636;7.692;2023-04-28T01:52:31;98073.13;;;13.13;100.00
9474;BME280;8865;47.636;7.692;2023-04-28T01:54:57;98074.59;;;13.16;100.00
9474;BME280;8865;47.636;7.692;2023-04-28T01:57:23;98081.00;;;13.13;100.00
9474;BME280;8865;47.636;7.692;2023-04-28T01:59:49;98090.38;;;13.16;100.00
9474;BME280;8865;47.636;7.692;2023-04-28T02:02:15;98083.63;;;13.13;100.00
9474;BME280;8865;47.636;7.692;2023-04-28T02:04:41;98074.50;;;12.99;100.00
9474;BME280;8865;47.636;7.692;2023-04-28T02:07:07;98080.72;;;12.98;100.00
9474;BME280;8865;47.636;7.692;2023-04-28T02:09:33;98090.09;;;13.01;100.00
9474;BME280;8865;47.636;7.692;2023-04-28T02:11:59;98097.84;;;13.02;100.00
9474;BME280;8865;47.636;7.692;2023-04-28T02:14:28;98099.31;;;13.05;100.00
9474;BME280;8865;47.636;7.692;2023-04-28T02:16:54;98099.56;;;12.94;100.00
9474;BME280;8865;47.636;7.692;2023-04-28T02:19:20;98096.19;;;13.01;100.00
9474;BME280;8865;47.636;7.692;2023-04-28T02:21:46;98101.28;;;12.85;100.00
9474;BME280;8865;47.636;7.692;2023-04-28T02:24:12;98111.97;;;12.83;100.00
9474;BME280;8865;47.636;7.692;2023-04-28T02:26:38;98093.13;;;12.70;100.00
9474;BME280;8865;47.636;7.692;2023-04-28T02:29:04;98077.34;;;12.52;100.00
9474;BME280;8865;47.636;7.692;2023-04-28T02:31:30;98083.41;;;12.53;100.00
9474;BME280;8865;47.636;7.692;2023-04-28T02:33:56;98092.22;;;12.61;100.00
9474;BME280;8865;47.636;7.692;2023-04-28T02:36:22;98107.38;;;12.67;100.00
9474;BME280;8865;47.636;7.692;2023-04-28T02:38:48;98098.38;;;12.70;100.00
9474;BME280;8865;47.636;7.692;2023-04-28T02:41:14;98090.19;;;12.55;100.00
9474;BME280;8865;47.636;7.692;2023-04-28T02:43:40;98084.09;;;12.55;100.00
9474;BME280;8865;47.636;7.692;2023-04-28T02:46:06;98086.84;;;12.53;100.00
9474;BME280;8865;47.636;7.692;2023-04-28T02:48:33;98095.13;;;12.58;100.00
9474;BME280;8865;47.636;7.692;2023-04-28T02:51:01;98100.25;;;12.60;100.00
9474;BME280;8865;47.636;7.692;2023-04-28T02:53:27;98107.13;;;12.61;100.00
9474;BME280;8865;47.636;7.692;2023-04-28T02:55:53;98093.47;;;12.57;100.00
9474;BME280;8865;47.636;7.692;2023-04-28T02:58:19;98094.28;;;12.58;100.00
9474;BME280;8865;47.636;7.692;2023-04-28T03:00:47;98089.63;;;12.51;100.00
9474;BME280;8865;47.636;7.692;2023-04-28T03:03:13;98101.81;;;12.53;100.00
9474;BME280;8865;47.636;7.692;2023-04-28T03:05:39;98098.22;;;12.54;100.00
9474;BME280;8865;47.636;7.692;2023-04-28T03:08:05;98097.91;;;12.57;100.00
9474;BME280;8865;47.636;7.692;2023-04-28T03:10:31;98106.16;;;12.62;100.00
9474;BME280;8865;47.636;7.692;2023-04-28T03:12:57;98111.97;;;12.65;100.00
9474;BME280;8865;47.636;7.692;2023-04-28T03:15:23;98117.75;;;12.69;100.00
9474;BME280;8865;47.636;7.692;2023-04-28T03:17:50;98110.00;;;12.67;100.00
9474;BME280;8865;47.636;7.692;2023-04-28T03:20:16;98116.69;;;12.62;100.00
9474;BME280;8865;47.636;7.692;2023-04-28T03:22:42;98112.53;;;12.59;100.00
9474;BME280;8865;47.636;7.692;2023-04-28T03:25:08;98123.44;;;12.64;100.00
9474;BME280;8865;47.636;7.692;2023-04-28T03:27:34;98112.78;;;12.66;100.00
9474;BME280;8865;47.636;7.692;2023-04-28T03:30:00;98111.13;;;12.65;100.00
9474;BME280;8865;47.636;7.692;2023-04-28T03:32:26;98123.97;;;12.68;100.00
9474;BME280;8865;47.636;7.692;2023-04-28T03:34:52;98131.84;;;12.68;100.00
9474;BME280;8865;47.636;7.692;2023-04-28T03:37:18;98129.91;;;12.70;100.00
9474;BME280;8865;47.636;7.692;2023-04-28T03:39:44;98131.78;;;12.60;100.00
9474;BME280;8865;47.636;7.692;2023-04-28T03:42:10;98130.63;;;12.62;100.00
9474;BME280;8865;47.636;7.692;2023-04-28T03:44:36;98135.72;;;12.64;100.00
9474;BME280;8865;47.636;7.692;2023-04-28T03:47:02;98126.66;;;12.58;100.00
9474;BME280;8865;47.636;7.692;2023-04-28T03:49:28;98139.50;;;12.61;100.00
9474;BME280;8865;47.636;7.692;2023-04-28T03:51:54;98137.31;;;12.57;100.00
9474;BME280;8865;47.636;7.692;2023-04-28T03:54:20;98137.19;;;12.58;100.00
9474;BME280;8865;47.636;7.692;2023-04-28T03:56:46;98156.75;;;12.64;100.00
9474;BME280;8865;47.636;7.692;2023-04-28T03:59:12;98159.78;;;12.69;100.00
9474;BME280;8865;47.636;7.692;2023-04-28T04:01:38;98147.38;;;12.61;100.00
9474;BME280;8865;47.636;7.692;2023-04-28T04:04:04;98136.44;;;12.66;100.00
9474;BME280;8865;47.636;7.692;2023-04-28T04:06:30;98154.22;;;12.72;100.00
9474;BME280;8865;47.636;7.692;2023-04-28T04:08:57;98172.34;;;12.75;100.00
9474;BME280;8865;47.636;7.692;2023-04-28T04:11:23;98172.19;;;12.77;100.00
9474;BME280;8865;47.636;7.692;2023-04-28T04:13:49;98168.34;;;12.71;100.00
9474;BME280;8865;47.636;7.692;2023-04-28T04:16:15;98174.19;;;12.65;100.00
9474;BME280;8865;47.636;7.692;2023-04-28T04:18:41;98176.50;;;12.68;100.00
9474;BME280;8865;47.636;7.692;2023-04-28T04:21:07;98170.31;;;12.69;100.00
9474;BME280;8865;47.636;7.692;2023-04-28T04:23:33;98170.59;;;12.66;100.00
9474;BME280;8865;47.636;7.692;2023-04-28T04:25:59;98178.19;;;12.69;100.00
9474;BME280;8865;47.636;7.692;2023-04-28T04:28:25;98183.28;;;12.71;100.00
9474;BME280;8865;47.636;7.692;2023-04-28T04:30:51;98188.41;;;12.72;100.00
9474;BME280;8865;47.636;7.692;2023-04-28T04:33:18;98183.13;;;12.72;100.00
9474;BME280;8865;47.636;7.692;2023-04-28T04:35:44;98184.09;;;12.71;100.00
9474;BME280;8865;47.636;7.692;2023-04-28T04:38:11;98186.06;;;12.69;100.00
9474;BME280;8865;47.636;7.692;2023-04-28T04:40:37;98190.34;;;12.70;100.00
9474;BME280;8865;47.636;7.692;2023-04-28T04:43:03;98184.03;;;12.63;100.00
9474;BME280;8865;47.636;7.692;2023-04-28T04:45:29;98174.09;;;12.57;100.00
9474;BME280;8865;47.636;7.692;2023-04-28T04:47:55;98179.78;;;12.52;100.00
9474;BME280;8865;47.636;7.692;2023-04-28T04:50:21;98176.03;;;12.55;100.00
9474;BME280;8865;47.636;7.692;2023-04-28T04:52:47;98177.31;;;12.50;100.00
9474;BME280;8865;47.636;7.692;2023-04-28T04:55:13;98166.81;;;12.50;100.00
9474;BME280;8865;47.636;7.692;2023-04-28T04:57:40;98173.41;;;12.55;100.00
9474;BME280;8865;47.636;7.692;2023-04-28T05:00:06;98168.44;;;12.51;100.00
9474;BME280;8865;47.636;7.692;2023-04-28T05:02:32;98181.13;;;12.56;100.00
9474;BME280;8865;47.636;7.692;2023-04-28T05:04:58;98179.72;;;12.62;100.00
9474;BME280;8865;47.636;7.692;2023-04-28T05:07:25;98165.16;;;12.49;100.00
9474;BME280;8865;47.636;7.692;2023-04-28T05:09:51;98170.41;;;12.49;100.00
9474;BME280;8865;47.636;7.692;2023-04-28T05:12:17;98188.19;;;12.56;100.00
9474;BME280;8865;47.636;7.692;2023-04-28T05:14:43;98197.91;;;12.55;100.00
9474;BME280;8865;47.636;7.692;2023-04-28T05:17:09;98184.50;;;12.48;100.00
9474;BME280;8865;47.636;7.692;2023-04-28T05:19:35;98184.06;;;12.53;100.00
9474;BME280;8865;47.636;7.692;2023-04-28T05:22:01;98186.53;;;12.55;100.00
9474;BME280;8865;47.636;7.692;2023-04-28T05:24:27;98187.75;;;12.60;100.00
9474;BME280;8865;47.636;7.692;2023-04-28T05:26:57;98199.34;;;12.67;100.00
9474;BME280;8865;47.636;7.692;2023-04-28T05:29:23;98191.69;;;12.74;100.00
9474;BME280;8865;47.636;7.692;2023-04-28T05:31:49;98184.09;;;12.71;100.00
9474;BME280;8865;47.636;7.692;2023-04-28T05:34:15;98186.34;;;12.66;100.00
9474;BME280;8865;47.636;7.692;2023-04-28T05:36:41;98184.25;;;12.69;100.00
9474;BME280;8865;47.636;7.692;2023-04-28T05:39:07;98186.59;;;12.73;100.00
9474;BME280;8865;47.636;7.692;2023-04-28T05:41:34;98190.09;;;12.63;100.00
9474;BME280;8865;47.636;7.692;2023-04-28T05:44:01;98186.06;;;12.69;100.00
9474;BME280;8865;47.636;7.692;2023-04-28T05:46:27;98200.28;;;12.76;100.00
9474;BME280;8865;47.636;7.692;2023-04-28T05:48:53;98201.63;;;12.80;100.00
9474;BME280;8865;47.636;7.692;2023-04-28T05:51:19;98203.28;;;12.81;100.00
9474;BME280;8865;47.636;7.692;2023-04-28T05:53:47;98190.50;;;12.86;100.00
9474;BME280;8865;47.636;7.692;2023-04-28T05:56:14;98199.25;;;12.87;100.00
9474;BME280;8865;47.636;7.692;2023-04-28T05:58:41;98191.81;;;12.82;100.00
9474;BME280;8865;47.636;7.692;2023-04-28T06:01:09;98186.00;;;12.79;100.00
9474;BME280;8865;47.636;7.692;2023-04-28T06:03:36;98180.59;;;12.80;100.00
9474;BME280;8865;47.636;7.692;2023-04-28T06:06:02;98182.03;;;12.75;100.00
9474;BME280;8865;47.636;7.692;2023-04-28T06:08:28;98178.25;;;12.77;100.00
9474;BME280;8865;47.636;7.692;2023-04-28T06:10:54;98190.88;;;12.74;100.00
9474;BME280;8865;47.636;7.692;2023-04-28T06:13:20;98177.22;;;12.88;100.00
9474;BME280;8865;47.636;7.692;2023-04-28T06:15:46;98185.19;;;12.96;100.00
9474;BME280;8865;47.636;7.692;2023-04-28T06:18:12;98187.09;;;13.04;100.00
9474;BME280;8865;47.636;7.692;2023-04-28T06:20:38;98190.75;;;13.11;100.00
9474;BME280;8865;47.636;7.692;2023-04-28T06:23:04;98179.31;;;13.20;100.00
9474;BME280;8865;47.636;7.692;2023-04-28T06:25:30;98169.50;;;13.22;100.00
9474;BME280;8865;47.636;7.692;2023-04-28T06:27:56;98174.16;;;13.29;100.00
9474;BME280;8865;47.636;7.692;2023-04-28T06:30:23;98177.03;;;13.35;100.00
9474;BME280;8865;47.636;7.692;2023-04-28T06:32:49;98173.13;;;13.39;100.00
9474;BME280;8865;47.636;7.692;2023-04-28T06:35:18;98163.25;;;13.42;100.00
9474;BME280;8865;47.636;7.692;2023-04-28T06:37:44;98188.31;;;13.46;100.00
9474;BME280;8865;47.636;7.692;2023-04-28T06:40:10;98178.59;;;13.46;100.00
9474;BME280;8865;47.636;7.692;2023-04-28T06:42:36;98173.78;;;13.42;100.00
9474;BME280;8865;47.636;7.692;2023-04-28T06:45:02;98173.63;;;13.43;100.00
9474;BME280;8865;47.636;7.692;2023-04-28T06:47:28;98185.13;;;13.42;100.00
9474;BME280;8865;47.636;7.692;2023-04-28T06:49:54;98185.44;;;13.39;100.00
9474;BME280;8865;47.636;7.692;2023-04-28T06:52:20;98194.38;;;13.46;100.00
9474;BME280;8865;47.636;7.692;2023-04-28T06:54:47;98195.19;;;13.47;100.00
9474;BME280;8865;47.636;7.692;2023-04-28T06:57:13;98199.34;;;13.49;100.00
9474;BME280;8865;47.636;7.692;2023-04-28T06:59:39;98197.66;;;13.48;100.00
9474;BME280;8865;47.636;7.692;2023-04-28T07:02:09;98201.00;;;13.50;100.00
9474;BME280;8865;47.636;7.692;2023-04-28T07:04:35;98205.25;;;13.51;100.00
9474;BME280;8865;47.636;7.692;2023-04-28T07:07:01;98211.06;;;13.55;100.00
9474;BME280;8865;47.636;7.692;2023-04-28T07:09:27;98210.22;;;13.54;100.00
9474;BME280;8865;47.636;7.692;2023-04-28T07:11:53;98207.44;;;13.56;100.00
9474;BME280;8865;47.636;7.692;2023-04-28T07:14:19;98214.88;;;13.61;100.00
9474;BME280;8865;47.636;7.692;2023-04-28T07:16:45;98213.41;;;13.58;100.00
9474;BME280;8865;47.636;7.692;2023-04-28T07:19:11;98212.84;;;13.54;100.00
9474;BME280;8865;47.636;7.692;2023-04-28T07:21:37;98209.03;;;13.49;100.00
9474;BME280;8865;47.636;7.692;2023-04-28T07:24:03;98211.22;;;13.53;100.00
9474;BME280;8865;47.636;7.692;2023-04-28T07:26:29;98206.31;;;13.58;100.00
9474;BME280;8865;47.636;7.692;2023-04-28T07:28:55;98217.66;;;13.59;100.00
9474;BME280;8865;47.636;7.692;2023-04-28T07:31:21;98211.69;;;13.49;100.00
9474;BME280;8865;47.636;7.692;2023-04-28T07:33:48;98219.47;;;13.58;100.00
9474;BME280;8865;47.636;7.692;2023-04-28T07:36:14;98228.78;;;13.71;100.00
9474;BME280;8865;47.636;7.692;2023-04-28T07:38:40;98226.53;;;13.76;100.00
9474;BME280;8865;47.636;7.692;2023-04-28T07:41:06;98215.31;;;13.74;100.00
9474;BME280;8865;47.636;7.692;2023-04-28T07:43:32;98210.28;;;13.81;100.00
9474;BME280;8865;47.636;7.692;2023-04-28T07:45:58;98215.31;;;13.74;100.00
9474;BME280;8865;47.636;7.692;2023-04-28T07:48:24;98218.09;;;13.72;100.00
9474;BME280;8865;47.636;7.692;2023-04-28T07:50:52;98214.03;;;13.78;100.00
9474;BME280;8865;47.636;7.692;2023-04-28T07:53:18;98204.63;;;13.75;100.00
9474;BME280;8865;47.636;7.692;2023-04-28T07:55:44;98219.00;;;13.81;100.00
9474;BME280;8865;47.636;7.692;2023-04-28T07:58:11;98225.06;;;13.82;100.00
9474;BME280;8865;47.636;7.692;2023-04-28T08:00:37;98214.09;;;13.68;100.00
9474;BME280;8865;47.636;7.692;2023-04-28T08:03:03;98214.41;;;13.65;100.00
9474;BME280;8865;47.636;7.692;2023-04-28T08:05:29;98224.22;;;13.73;100.00
9474;BME280;8865;47.636;7.692;2023-04-28T08:07:56;98224.91;;;13.83;100.00
9474;BME280;8865;47.636;7.692;2023-04-28T08:10:22;98217.44;;;13.97;100.00
9474;BME280;8865;47.636;7.692;2023-04-28T08:12:48;98224.16;;;14.17;100.00
9474;BME280;8865;47.636;7.692;2023-04-28T08:15:14;98219.44;;;14.29;100.00
9474;BME280;8865;47.636;7.692;2023-04-28T08:17:40;98220.31;;;14.38;100.00
9474;BME280;8865;47.636;7.692;2023-04-28T08:20:07;98215.38;;;14.35;100.00
9474;BME280;8865;47.636;7.692;2023-04-28T08:22:33;98218.31;;;14.32;100.00
9474;BME280;8865;47.636;7.692;2023-04-28T08:25:00;98214.69;;;14.33;100.00
9474;BME280;8865;47.636;7.692;2023-04-28T08:27:26;98217.84;;;14.36;100.00
9474;BME280;8865;47.636;7.692;2023-04-28T08:29:53;98219.63;;;14.36;100.00
9474;BME280;8865;47.636;7.692;2023-04-28T08:32:19;98222.47;;;14.42;100.00
9474;BME280;8865;47.636;7.692;2023-04-28T08:34:45;98208.94;;;14.37;100.00
9474;BME280;8865;47.636;7.692;2023-04-28T08:37:11;98214.38;;;14.36;100.00
9474;BME280;8865;47.636;7.692;2023-04-28T08:39:37;98225.28;;;14.41;100.00
9474;BME280;8865;47.636;7.692;2023-04-28T08:42:03;98226.59;;;14.45;100.00
9474;BME280;8865;47.636;7.692;2023-04-28T08:44:37;98216.69;;;14.39;100.00
9474;BME280;8865;47.636;7.692;2023-04-28T08:47:13;98217.84;;;14.36;100.00
9474;BME280;8865;47.636;7.692;2023-04-28T08:49:39;98225.28;;;14.41;100.00
9474;BME280;8865;47.636;7.692;2023-04-28T08:52:11;98233.53;;;14.46;100.00
9474;BME280;8865;47.636;7.692;2023-04-28T08:54:39;98234.88;;;14.50;100.00
9474;BME280;8865;47.636;7.692;2023-04-28T08:57:08;98231.38;;;14.50;100.00
9474;BME280;8865;47.636;7.692;2023-04-28T08:59:38;98245.72;;;14.47;100.00
9474;BME280;8865;47.636;7.692;2023-04-28T09:02:08;98237.69;;;14.57;100.00
9474;BME280;8865;47.636;7.692;2023-04-28T09:04:34;98256.91;;;14.75;100.00
9474;BME280;8865;47.636;7.692;2023-04-28T09:07:01;98254.16;;;14.85;100.00
9474;BME280;8865;47.636;7.692;2023-04-28T09:09:28;98255.16;;;14.92;100.00
9474;BME280;8865;47.636;7.692;2023-04-28T09:11:59;98257.47;;;14.95;100.00
9474;BME280;8865;47.636;7.692;2023-04-28T09:14:29;98254.19;;;14.93;100.00
9474;BME280;8865;47.636;7.692;2023-04-28T09:16:56;98247.59;;;14.97;100.00
9474;BME280;8865;47.636;7.692;2023-04-28T09:19:22;98250.56;;;15.03;100.00
9474;BME280;8865;47.636;7.692;2023-04-28T09:21:51;98255.03;;;15.02;100.00
9474;BME280;8865;47.636;7.692;2023-04-28T09:24:27;98252.91;;;15.06;100.00
9474;BME280;8865;47.636;7.692;2023-04-28T09:26:53;98250.75;;;15.09;100.00
9474;BME280;8865;47.636;7.692;2023-04-28T09:29:19;98245.16;;;15.12;100.00
9474;BME280;8865;47.636;7.692;2023-04-28T09:31:45;98247.28;;;15.09;100.00
9474;BME280;8865;47.636;7.692;2023-04-28T09:34:11;98246.00;;;15.13;100.00
9474;BME280;8865;47.636;7.692;2023-04-28T09:36:37;98254.91;;;15.20;100.00
9474;BME280;8865;47.636;7.692;2023-04-28T09:39:03;98246.50;;;15.16;100.00
9474;BME280;8865;47.636;7.692;2023-04-28T09:41:40;98248.97;;;15.18;100.00
9474;BME280;8865;47.636;7.692;2023-04-28T09:44:10;98243.03;;;15.16;100.00
9474;BME280;8865;47.636;7.692;2023-04-28T09:46:36;98245.19;;;15.21;100.00
9474;BME280;8865;47.636;7.692;2023-04-28T09:49:02;98243.53;;;15.28;100.00
9474;BME280;8865;47.636;7.692;2023-04-28T09:51:28;98254.78;;;15.38;100.00
9474;BME280;8865;47.636;7.692;2023-04-28T09:53:58;98243.06;;;15.49;100.00
9474;BME280;8865;47.636;7.692;2023-04-28T09:56:29;98238.47;;;15.59;100.00
9474;BME280;8865;47.636;7.692;2023-04-28T09:58:59;98233.66;;;15.71;100.00
9474;BME280;8865;47.636;7.692;2023-04-28T10:01:36;98236.19;;;15.81;100.00
9474;BME280;8865;47.636;7.692;2023-04-28T10:04:06;98233.69;;;15.87;100.00
9474;BME280;8865;47.636;7.692;2023-04-28T10:06:33;98228.75;;;15.93;100.00
9474;BME280;8865;47.636;7.692;2023-04-28T10:09:01;98238.47;;;15.92;100.00
9474;BME280;8865;47.636;7.692;2023-04-28T10:11:27;98236.34;;;15.96;100.00
9474;BME280;8865;47.636;7.692;2023-04-28T10:13:54;98231.69;;;15.98;100.00
9474;BME280;8865;47.636;7.692;2023-04-28T10:16:19;98235.66;;;16.02;100.00
9474;BME280;8865;47.636;7.692;2023-04-28T10:18:47;98236.47;;;16.02;100.00
9474;BME280;8865;47.636;7.692;2023-04-28T10:21:17;98232.50;;;16.15;100.00
9474;BME280;8865;47.636;7.692;2023-04-28T10:24:08;98230.28;;;16.35;100.00
9474;BME280;8865;47.636;7.692;2023-04-28T10:27:01;98228.59;;;16.50;100.00
9474;BME280;8865;47.636;7.692;2023-04-28T10:29:30;98221.75;;;16.64;100.00
9474;BME280;8865;47.636;7.692;2023-04-28T10:32:21;98220.63;;;16.98;100.00
9474;BME280;8865;47.636;7.692;2023-04-28T10:34:48;98219.72;;;17.14;100.00
9474;BME280;8865;47.636;7.692;2023-04-28T10:37:15;98215.44;;;17.36;100.00
9474;BME280;8865;47.636;7.692;2023-04-28T10:42:54;98213.44;;;18.14;100.00
9474;BME280;8865;47.636;7.692;2023-04-28T10:56:11;98192.72;;;19.21;100.00
9474;BME280;8865;47.636;7.692;2023-04-28T10:58:38;98177.84;;;19.05;100.00
9474;BME280;8865;47.636;7.692;2023-04-28T11:03:57;98179.84;;;18.66;100.00
9474;BME280;8865;47.636;7.692;2023-04-28T11:06:29;98175.19;;;18.53;100.00
9474;BME280;8865;47.636;7.692;2023-04-28T11:08:58;98168.34;;;18.44;100.00
9474;BME280;8865;47.636;7.692;2023-04-28T11:11:32;98178.97;;;18.44;100.00
9474;BME280;8865;47.636;7.692;2023-04-28T11:19:18;98195.78;;;18.51;100.00
9474;BME280;8865;47.636;7.692;2023-04-28T11:21:48;98192.88;;;18.46;100.00
9474;BME280;8865;47.636;7.692;2023-04-28T11:24:15;98183.44;;;18.44;100.00
9474;BME280;8865;47.636;7.692;2023-04-28T11:26:42;98188.47;;;18.53;100.00
9474;BME280;8865;47.636;7.692;2023-04-28T11:29:10;98186.47;;;18.55;100.00
9474;BME280;8865;47.636;7.692;2023-04-28T11:31:36;98186.00;;;18.52;100.00
9474;BME280;8865;47.636;7.692;2023-04-28T11:36:33;98178.81;;;18.31;100.00
9474;BME280;8865;47.636;7.692;2023-04-28T11:39:05;98178.16;;;18.29;100.00
9474;BME280;8865;47.636;7.692;2023-04-28T11:41:36;98194.78;;;18.37;100.00
9474;BME280;8865;47.636;7.692;2023-04-28T11:49:24;98163.97;;;19.03;100.00
9474;BME280;8865;47.636;7.692;2023-04-28T11:51:51;98157.13;;;19.37;100.00
9474;BME280;8865;47.636;7.692;2023-04-28T11:54:22;98144.50;;;19.45;100.00
9474;BME280;8865;47.636;7.692;2023-04-28T11:56:48;98142.22;;;19.42;100.00
9474;BME280;8865;47.636;7.692;2023-04-28T11:59:14;98143.31;;;19.48;100.00
9474;BME280;8865;47.636;7.692;2023-04-28T12:04:09;98132.81;;;19.96;100.00
9474;BME280;8865;47.636;7.692;2023-04-28T12:06:36;98124.50;;;20.55;100.00
9474;BME280;8865;47.636;7.692;2023-04-28T12:09:14;98113.81;;;21.10;100.00
9474;BME280;8865;47.636;7.692;2023-04-28T12:11:55;98110.53;;;21.81;100.00
9474;BME280;8865;47.636;7.692;2023-04-28T12:14:22;98103.75;;;22.51;100.00
9474;BME280;8865;47.636;7.692;2023-04-28T12:16:49;98103.41;;;22.34;100.00
9474;BME280;8865;47.636;7.692;2023-04-28T12:19:16;98108.78;;;22.14;100.00
9474;BME280;8865;47.636;7.692;2023-04-28T12:21:43;98097.56;;;21.98;100.00
9474;BME280;8865;47.636;7.692;2023-04-28T12:26:39;98104.41;;;21.47;100.00
9474;BME280;8865;47.636;7.692;2023-04-28T12:29:05;98108.50;;;21.23;100.00
9474;BME280;8865;47.636;7.692;2023-04-28T12:31:31;98106.84;;;21.09;100.00
9474;BME280;8865;47.636;7.692;2023-04-28T12:33:57;98102.13;;;21.11;100.00
9474;BME280;8865;47.636;7.692;2023-04-28T12:36:23;98106.00;;;21.08;100.00
9474;BME280;8865;47.636;7.692;2023-04-28T12:38:49;98107.44;;;21.04;100.00
9474;BME280;8865;47.636;7.692;2023-04-28T12:41:16;98104.38;;;20.94;100.00
9474;BME280;8865;47.636;7.692;2023-04-28T12:43:42;98105.75;;;20.76;100.00
9474;BME280;8865;47.636;7.692;2023-04-28T12:46:09;98112.03;;;20.62;100.00
9474;BME280;8865;47.636;7.692;2023-04-28T12:48:37;98108.56;;;20.61;100.00
9474;BME280;8865;47.636;7.692;2023-04-28T12:51:03;98110.47;;;20.67;100.00
9474;BME280;8865;47.636;7.692;2023-04-28T12:53:29;98090.44;;;20.78;100.00
9474;BME280;8865;47.636;7.692;2023-04-28T12:55:55;98094.94;;;20.91;100.00
9474;BME280;8865;47.636;7.692;2023-04-28T12:58:21;98098.03;;;21.01;100.00
9474;BME280;8865;47.636;7.692;2023-04-28T13:00:47;98087.59;;;21.07;100.00
9474;BME280;8865;47.636;7.692;2023-04-28T13:03:13;98090.44;;;21.25;100.00
9474;BME280;8865;47.636;7.692;2023-04-28T13:05:40;98087.19;;;21.63;100.00
9474;BME280;8865;47.636;7.692;2023-04-28T13:08:06;98072.38;;;21.81;100.00
9474;BME280;8865;47.636;7.692;2023-04-28T13:10:32;98073.22;;;21.68;100.00
9474;BME280;8865;47.636;7.692;2023-04-28T13:12:58;98071.81;;;21.38;100.00
9474;BME280;8865;47.636;7.692;2023-04-28T13:15:24;98079.41;;;21.01;100.00
9474;BME280;8865;47.636;7.692;2023-04-28T13:17:50;98077.69;;;20.67;100.00
9474;BME280;8865;47.636;7.692;2023-04-28T13:20:16;98080.88;;;20.36;100.00
9474;BME280;8865;47.636;7.692;2023-04-28T13:22:42;98080.97;;;20.14;100.00
9474;BME280;8865;47.636;7.692;2023-04-28T13:25:08;98095.63;;;19.96;100.00
9474;BME280;8865;47.636;7.692;2023-04-28T13:27:34;98092.91;;;19.83;100.00
9474;BME280;8865;47.636;7.692;2023-04-28T13:30:01;98087.06;;;19.73;100.00
9474;BME280;8865;47.636;7.692;2023-04-28T13:32:28;98091.31;;;19.67;100.00
9474;BME280;8865;47.636;7.692;2023-04-28T13:34:54;98076.81;;;19.63;100.00
9474;BME280;8865;47.636;7.692;2023-04-28T13:37:20;98073.47;;;19.54;100.00
9474;BME280;8865;47.636;7.692;2023-04-28T13:39:46;98089.50;;;19.39;100.00
9474;BME280;8865;47.636;7.692;2023-04-28T13:42:12;98096.81;;;19.31;100.00
9474;BME280;8865;47.636;7.692;2023-04-28T13:44:38;98077.00;;;19.33;100.00